createdAt,value
2017-08-21T00:01:12.042Z,22.24
2017-08-21T00:03:39.667Z,22.05
2017-08-21T00:06:07.239Z,22.05
2017-08-21T00:08:34.792Z,22.20
2017-08-21T00:11:02.542Z,22.04
2017-08-21T00:13:30.303Z,22.16
2017-08-21T00:15:57.902Z,22.09
2017-08-21T00:18:25.505Z,22.00
2017-08-21T00:20:53.313Z,22.06
2017-08-21T00:23:20.902Z,22.07
2017-08-21T00:25:48.675Z,21.95
2017-08-21T00:28:16.260Z,21.89
2017-08-21T00:30:43.867Z,21.84
2017-08-21T00:33:11.756Z,21.75
2017-08-21T00:35:39.340Z,21.81
2017-08-21T00:38:06.923Z,21.81
2017-08-21T00:40:34.514Z,21.86
2017-08-21T00:43:02.092Z,21.90
2017-08-21T00:45:29.732Z,21.71
2017-08-21T00:47:57.340Z,21.77
2017-08-21T00:50:24.872Z,21.83
2017-08-21T00:52:53.250Z,21.81
2017-08-21T00:55:21.061Z,21.77
2017-08-21T00:57:48.580Z,21.62
2017-08-21T01:00:17.828Z,21.77
2017-08-21T01:02:45.421Z,21.77
2017-08-21T01:05:12.997Z,21.90
2017-08-21T01:07:40.550Z,21.81
2017-08-21T01:10:08.113Z,21.85
2017-08-21T01:12:35.645Z,21.84
2017-08-21T01:15:03.229Z,21.66
2017-08-21T01:17:30.755Z,21.70
2017-08-21T01:19:58.310Z,21.69
2017-08-21T01:22:25.897Z,21.87
2017-08-21T01:24:53.508Z,21.92
2017-08-21T01:27:21.068Z,21.64
2017-08-21T01:29:48.669Z,21.76
2017-08-21T01:32:16.242Z,21.70
2017-08-21T01:34:43.785Z,21.68
2017-08-21T01:37:11.345Z,21.66
2017-08-21T01:39:38.937Z,21.65
2017-08-21T01:42:06.510Z,21.57
2017-08-21T01:44:34.364Z,21.53
2017-08-21T01:47:01.950Z,21.68
2017-08-21T01:49:29.487Z,21.81
2017-08-21T01:51:57.005Z,21.70
2017-08-21T01:54:25.294Z,21.71
2017-08-21T01:56:53.048Z,21.35
2017-08-21T01:59:20.618Z,21.51
2017-08-21T02:01:48.196Z,21.53
2017-08-21T02:04:15.779Z,21.60
2017-08-21T02:06:43.312Z,21.39
2017-08-21T02:09:10.881Z,21.48
2017-08-21T02:11:38.475Z,21.57
2017-08-21T02:14:06.084Z,21.58
2017-08-21T02:16:33.669Z,21.39
2017-08-21T02:19:01.222Z,21.40
2017-08-21T02:21:28.985Z,21.42
2017-08-21T02:23:56.579Z,21.30
2017-08-21T02:26:24.422Z,21.31
2017-08-21T02:28:51.955Z,21.44
2017-08-21T02:31:19.541Z,21.48
2017-08-21T02:33:47.096Z,21.44
2017-08-21T02:36:14.639Z,21.36
2017-08-21T02:38:46.267Z,21.38
2017-08-21T02:41:13.822Z,21.41
2017-08-21T02:43:41.351Z,21.42
2017-08-21T02:46:08.953Z,21.35
2017-08-21T02:48:36.534Z,21.35
2017-08-21T02:51:04.071Z,21.39
2017-08-21T02:53:31.638Z,21.32
2017-08-21T02:55:59.429Z,21.18
2017-08-21T02:58:27.199Z,21.19
2017-08-21T03:00:54.796Z,21.39
2017-08-21T03:03:22.346Z,21.24
2017-08-21T03:05:49.948Z,21.33
2017-08-21T03:08:17.584Z,21.31
2017-08-21T03:10:45.137Z,21.06
2017-08-21T03:13:12.813Z,21.25
2017-08-21T03:15:40.416Z,21.26
2017-08-21T03:18:08.012Z,21.32
2017-08-21T03:20:35.649Z,21.31
2017-08-21T03:23:03.261Z,21.37
2017-08-21T03:25:30.808Z,21.48
2017-08-21T03:27:58.384Z,21.46
2017-08-21T03:30:26.055Z,21.58
2017-08-21T03:32:53.652Z,21.56
2017-08-21T03:35:21.414Z,21.61
2017-08-21T03:37:49.005Z,21.53
2017-08-21T03:40:16.735Z,21.43
2017-08-21T03:42:44.299Z,21.47
2017-08-21T03:45:11.910Z,21.57
2017-08-21T03:47:39.425Z,21.49
2017-08-21T03:50:06.947Z,21.63
2017-08-21T03:52:34.537Z,21.54
2017-08-21T03:55:02.140Z,21.48
2017-08-21T03:57:29.925Z,21.43
2017-08-21T03:59:57.470Z,21.50
2017-08-21T04:02:25.050Z,21.42
2017-08-21T04:04:52.599Z,21.42
2017-08-21T04:07:20.129Z,21.53
2017-08-21T04:09:47.701Z,21.40
2017-08-21T04:12:15.323Z,21.49
2017-08-21T04:14:42.903Z,21.38
2017-08-21T04:17:10.470Z,21.46
2017-08-21T04:19:38.512Z,21.38
2017-08-21T04:22:06.037Z,21.18
2017-08-21T04:24:33.636Z,21.17
2017-08-21T04:27:01.156Z,21.27
2017-08-21T04:29:28.685Z,21.36
2017-08-21T04:31:56.248Z,21.38
2017-08-21T04:34:23.782Z,21.38
2017-08-21T04:36:51.333Z,21.54
2017-08-21T04:39:18.959Z,21.58
2017-08-21T04:41:46.727Z,21.37
2017-08-21T04:44:14.462Z,21.55
2017-08-21T04:46:42.042Z,21.78
2017-08-21T04:49:09.792Z,21.83
2017-08-21T04:51:37.411Z,21.95
2017-08-21T04:54:04.999Z,21.76
2017-08-21T04:56:32.601Z,21.89
2017-08-21T04:59:00.155Z,22.09
2017-08-21T05:01:27.739Z,21.87
2017-08-21T05:03:55.289Z,21.77
2017-08-21T05:06:23.185Z,21.72
2017-08-21T05:08:50.788Z,21.78
2017-08-21T05:11:18.359Z,21.61
2017-08-21T05:13:46.118Z,21.54
2017-08-21T05:16:13.680Z,21.57
2017-08-21T05:18:41.222Z,21.45
2017-08-21T05:21:08.783Z,21.46
2017-08-21T05:23:36.354Z,21.65
2017-08-21T05:26:04.104Z,21.60
2017-08-21T05:28:31.663Z,21.90
2017-08-21T05:30:59.243Z,21.98
2017-08-21T05:33:26.819Z,22.01
2017-08-21T05:35:54.361Z,22.13
2017-08-21T05:38:21.909Z,22.46
2017-08-21T05:40:49.569Z,22.80
2017-08-21T05:43:17.471Z,22.94
2017-08-21T05:45:45.123Z,23.00
2017-08-21T05:48:12.686Z,23.07
2017-08-21T05:50:40.883Z,22.79
2017-08-21T05:53:08.453Z,23.06
2017-08-21T05:55:36.017Z,23.00
2017-08-21T05:58:03.577Z,23.58
2017-08-21T06:00:31.158Z,23.70
2017-08-21T06:02:58.742Z,23.90
2017-08-21T06:05:26.493Z,23.86
2017-08-21T06:07:54.041Z,24.41
2017-08-21T06:10:21.587Z,24.51
2017-08-21T06:12:49.142Z,24.64
2017-08-21T06:15:23.888Z,24.68
2017-08-21T06:17:51.460Z,24.52
2017-08-21T06:20:19.021Z,24.71
2017-08-21T06:22:46.612Z,24.40
2017-08-21T06:25:14.133Z,24.60
2017-08-21T06:27:41.681Z,24.75
2017-08-21T06:30:09.324Z,24.09
2017-08-21T06:32:36.924Z,24.36
2017-08-21T06:35:04.448Z,24.20
2017-08-21T06:37:32.037Z,24.75
2017-08-21T06:39:59.601Z,24.61
2017-08-21T06:42:27.176Z,24.85
2017-08-21T06:44:54.713Z,24.15
2017-08-21T06:47:22.315Z,23.95
2017-08-21T06:49:49.889Z,23.66
2017-08-21T06:52:17.488Z,23.32
2017-08-21T06:54:45.052Z,23.00
2017-08-21T06:57:12.647Z,23.22
2017-08-21T06:59:40.237Z,22.82
2017-08-21T07:02:07.848Z,22.42
2017-08-21T07:04:35.403Z,22.65
2017-08-21T07:07:02.933Z,22.25
2017-08-21T07:09:30.482Z,22.39
2017-08-21T07:11:58.052Z,22.23
2017-08-21T07:14:25.565Z,22.33
2017-08-21T07:16:55.396Z,22.49
2017-08-21T07:19:22.944Z,22.37
2017-08-21T07:21:50.527Z,21.89
2017-08-21T07:24:18.138Z,21.78
2017-08-21T07:26:45.792Z,21.69
2017-08-21T07:29:13.536Z,21.58
2017-08-21T07:31:41.131Z,21.57
2017-08-21T07:34:08.669Z,21.60
2017-08-21T07:36:36.243Z,21.59
2017-08-21T07:39:03.905Z,21.38
2017-08-21T07:41:31.711Z,21.66
2017-08-21T07:43:59.269Z,21.70
2017-08-21T07:46:26.866Z,22.42
2017-08-21T07:48:55.215Z,22.88
2017-08-21T07:51:22.809Z,22.55
2017-08-21T07:53:50.442Z,21.92
2017-08-21T07:56:17.964Z,21.95
2017-08-21T07:58:45.542Z,21.68
2017-08-21T08:01:13.253Z,21.81
2017-08-21T08:03:40.813Z,21.97
2017-08-21T08:06:08.609Z,21.75
2017-08-21T08:08:36.186Z,21.86
2017-08-21T08:11:03.783Z,21.96
2017-08-21T08:13:31.365Z,21.67
2017-08-21T08:15:58.943Z,21.51
2017-08-21T08:18:26.535Z,21.33
2017-08-21T08:20:54.088Z,21.08
2017-08-21T08:23:21.683Z,20.93
2017-08-21T08:25:49.436Z,20.81
2017-08-21T08:28:17.000Z,20.77
2017-08-21T08:30:44.699Z,20.88
2017-08-21T08:33:12.286Z,20.67
2017-08-21T08:35:39.994Z,20.62
2017-08-21T08:38:07.586Z,20.65
2017-08-21T08:40:35.173Z,20.62
2017-08-21T08:43:02.754Z,20.40
2017-08-21T08:45:30.349Z,20.48
2017-08-21T08:47:57.966Z,20.52
2017-08-21T08:50:25.535Z,20.52
2017-08-21T08:52:53.144Z,20.38
2017-08-21T08:55:20.725Z,20.50
2017-08-21T08:57:48.581Z,20.34
2017-08-21T09:00:16.248Z,20.58
2017-08-21T09:02:44.047Z,20.58
2017-08-21T09:05:11.637Z,20.58
2017-08-21T09:07:39.239Z,20.18
2017-08-21T09:10:06.858Z,20.04
2017-08-21T09:12:34.398Z,20.09
2017-08-21T09:15:01.973Z,20.11
2017-08-21T09:17:29.538Z,20.05
2017-08-21T09:19:57.092Z,20.15
2017-08-21T09:22:24.689Z,19.99
2017-08-21T09:24:52.247Z,20.10
2017-08-21T09:27:19.805Z,20.17
2017-08-21T09:29:47.442Z,20.22
2017-08-21T09:32:15.040Z,20.33
2017-08-21T09:34:42.595Z,20.74
2017-08-21T09:37:10.137Z,20.46
2017-08-21T09:39:37.732Z,20.51
2017-08-21T09:42:05.294Z,20.42
2017-08-21T09:44:32.869Z,20.49
2017-08-21T09:47:00.486Z,20.21
2017-08-21T09:49:28.041Z,20.18
2017-08-21T09:51:55.796Z,20.40
2017-08-21T09:54:23.422Z,20.36
2017-08-21T09:56:50.969Z,20.38
2017-08-21T09:59:18.509Z,20.09
2017-08-21T10:01:46.125Z,20.12
2017-08-21T10:04:13.697Z,20.30
2017-08-21T10:06:41.477Z,20.48
2017-08-21T10:09:09.063Z,20.76
2017-08-21T10:11:36.604Z,20.77
2017-08-21T10:14:04.169Z,20.79
2017-08-21T10:16:31.788Z,20.86
2017-08-21T10:18:59.350Z,20.83
2017-08-21T10:21:26.897Z,20.79
2017-08-21T10:23:54.612Z,21.09
2017-08-21T10:26:22.152Z,21.32
2017-08-21T10:28:49.730Z,21.19
2017-08-21T10:31:17.599Z,21.23
2017-08-21T10:33:45.195Z,21.24
2017-08-21T10:36:12.776Z,21.19
2017-08-21T10:38:40.383Z,20.92
2017-08-21T10:41:07.939Z,20.77
2017-08-21T10:43:35.931Z,20.91
2017-08-21T10:46:03.570Z,20.81
2017-08-21T10:48:31.097Z,20.56
2017-08-21T10:50:58.650Z,20.44
2017-08-21T10:53:26.259Z,20.40
2017-08-21T10:55:53.814Z,20.44
2017-08-21T10:58:22.213Z,20.46
2017-08-21T11:00:49.764Z,20.41
2017-08-21T11:03:18.014Z,20.42
2017-08-21T11:05:45.603Z,20.20
2017-08-21T11:08:13.451Z,20.20
2017-08-21T11:10:41.041Z,20.31
2017-08-21T11:13:08.565Z,20.24
2017-08-21T11:15:36.167Z,20.42
2017-08-21T11:18:03.767Z,20.34
2017-08-21T11:20:31.351Z,20.28
2017-08-21T11:22:58.926Z,20.22
2017-08-21T11:25:26.679Z,20.17
2017-08-21T11:27:54.282Z,20.16
2017-08-21T11:30:22.564Z,20.35
2017-08-21T11:32:50.183Z,20.17
2017-08-21T11:35:17.786Z,20.43
2017-08-21T11:37:45.397Z,20.16
2017-08-21T11:40:13.109Z,20.02
2017-08-21T11:42:41.023Z,19.91
2017-08-21T11:45:08.643Z,20.19
2017-08-21T11:47:36.408Z,20.06
2017-08-21T11:50:03.954Z,20.00
2017-08-21T11:52:31.541Z,19.77
2017-08-21T11:54:59.289Z,19.56
2017-08-21T11:57:26.899Z,19.54
2017-08-21T11:59:54.790Z,19.58
2017-08-21T12:02:22.346Z,19.43
2017-08-21T12:04:49.936Z,19.40
2017-08-21T12:07:17.728Z,19.54
2017-08-21T12:09:45.339Z,19.67
2017-08-21T12:12:13.189Z,19.59
2017-08-21T12:14:40.776Z,19.68
2017-08-21T12:17:08.385Z,19.89
2017-08-21T12:19:35.933Z,20.05
2017-08-21T12:22:03.501Z,20.12
2017-08-21T12:24:31.081Z,20.16
2017-08-21T12:26:58.616Z,20.22
2017-08-21T12:29:26.145Z,20.20
2017-08-21T12:31:53.747Z,20.45
2017-08-21T12:34:21.273Z,20.73
2017-08-21T12:36:48.825Z,20.58
2017-08-21T12:39:16.363Z,20.48
2017-08-21T12:41:43.882Z,20.34
2017-08-21T12:44:11.424Z,20.20
2017-08-21T12:46:39.057Z,20.02
2017-08-21T12:49:06.673Z,19.81
2017-08-21T12:51:34.182Z,19.80
2017-08-21T12:54:01.831Z,19.73
2017-08-21T12:56:31.136Z,19.63
2017-08-21T12:58:58.667Z,19.77
2017-08-21T13:01:26.303Z,19.69
2017-08-21T13:03:53.925Z,19.57
2017-08-21T13:06:21.560Z,19.64
2017-08-21T13:08:49.155Z,19.79
2017-08-21T13:11:16.757Z,19.67
2017-08-21T13:13:44.421Z,19.62
2017-08-21T13:16:12.161Z,19.71
2017-08-21T13:18:39.808Z,19.68
2017-08-21T13:21:07.504Z,19.59
2017-08-21T13:23:35.120Z,19.68
2017-08-21T13:26:02.885Z,19.68
2017-08-21T13:28:30.482Z,19.90
2017-08-21T13:30:58.092Z,19.83
2017-08-21T13:33:25.698Z,19.68
2017-08-21T13:35:53.285Z,19.70
2017-08-21T13:38:20.898Z,19.66
2017-08-21T13:40:48.429Z,19.49
2017-08-21T13:43:15.964Z,20.07
2017-08-21T13:45:43.753Z,19.88
2017-08-21T13:48:11.334Z,19.77
2017-08-21T13:50:39.121Z,19.81
2017-08-21T13:53:06.730Z,19.77
2017-08-21T13:55:34.249Z,19.85
2017-08-21T13:58:01.822Z,19.69
2017-08-21T14:00:29.464Z,19.47
2017-08-21T14:02:57.114Z,19.37
2017-08-21T14:05:24.662Z,19.51
2017-08-21T14:07:52.302Z,19.65
2017-08-21T14:10:19.864Z,19.61
2017-08-21T14:12:47.422Z,19.48
2017-08-21T14:15:15.046Z,19.45
2017-08-21T14:17:42.595Z,19.52
2017-08-21T14:20:10.224Z,19.64
2017-08-21T14:22:37.823Z,19.72
2017-08-21T14:25:05.372Z,19.54
2017-08-21T14:27:32.912Z,19.54
2017-08-21T14:30:00.541Z,19.59
2017-08-21T14:32:28.128Z,19.67
2017-08-21T14:34:55.729Z,19.57
2017-08-21T14:37:23.315Z,19.65
2017-08-21T14:39:51.113Z,19.62
2017-08-21T14:42:18.649Z,19.74
2017-08-21T14:44:46.202Z,19.82
2017-08-21T14:47:14.554Z,19.88
2017-08-21T14:49:42.114Z,19.79
2017-08-21T14:52:09.883Z,19.78
2017-08-21T14:54:37.505Z,19.71
2017-08-21T14:57:05.078Z,19.73
2017-08-21T14:59:32.624Z,19.79
2017-08-21T15:02:00.226Z,19.70
2017-08-21T15:04:27.764Z,19.83
2017-08-21T15:06:55.378Z,19.88
2017-08-21T15:09:22.973Z,19.89
2017-08-21T15:11:50.564Z,19.80
2017-08-21T15:14:18.126Z,19.93
2017-08-21T15:16:45.732Z,19.92
2017-08-21T15:19:13.536Z,19.82
2017-08-21T15:21:41.300Z,19.75
2017-08-21T15:24:08.942Z,19.86
2017-08-21T15:26:36.523Z,19.88
2017-08-21T15:29:05.056Z,19.86
2017-08-21T15:31:32.690Z,19.93
2017-08-21T15:34:00.456Z,20.12
2017-08-21T15:36:28.046Z,19.95
2017-08-21T15:38:55.813Z,19.99
2017-08-21T15:41:23.373Z,19.96
2017-08-21T15:43:50.941Z,20.05
2017-08-21T15:46:18.600Z,20.00
2017-08-21T15:48:46.391Z,20.01
2017-08-21T15:51:14.316Z,19.95
2017-08-21T15:53:41.920Z,19.95
2017-08-21T15:56:09.496Z,19.96
2017-08-21T15:58:37.053Z,20.35
2017-08-21T16:01:04.735Z,20.19
2017-08-21T16:03:32.534Z,20.18
2017-08-21T16:06:00.083Z,20.18
2017-08-21T16:08:27.693Z,20.24
2017-08-21T16:10:55.305Z,20.20
2017-08-21T16:13:22.897Z,20.03
2017-08-21T16:15:50.492Z,20.13
2017-08-21T16:18:18.069Z,20.43
2017-08-21T16:20:45.848Z,20.36
2017-08-21T16:23:13.433Z,20.25
2017-08-21T16:25:41.045Z,20.21
2017-08-21T16:28:08.688Z,20.19
2017-08-21T16:30:36.270Z,20.13
2017-08-21T16:33:03.897Z,20.10
2017-08-21T16:35:31.502Z,19.87
2017-08-21T16:37:59.149Z,19.88
2017-08-21T16:40:26.924Z,19.90
2017-08-21T16:42:54.462Z,19.92
2017-08-21T16:45:22.031Z,19.87
2017-08-21T16:47:49.586Z,19.99
2017-08-21T16:50:17.140Z,19.83
2017-08-21T16:52:44.751Z,19.76
2017-08-21T16:55:12.333Z,19.71
2017-08-21T16:57:39.898Z,19.58
2017-08-21T17:00:08.839Z,19.54
2017-08-21T17:02:36.723Z,19.59
2017-08-21T17:05:04.495Z,19.53
2017-08-21T17:07:32.108Z,19.52
2017-08-21T17:10:01.206Z,19.54
2017-08-21T17:12:29.032Z,19.62
2017-08-21T17:14:56.713Z,19.66
2017-08-21T17:17:24.484Z,19.55
2017-08-21T17:19:52.092Z,19.54
2017-08-21T17:22:20.069Z,19.65
2017-08-21T17:24:47.834Z,19.69
2017-08-21T17:27:15.470Z,19.61
2017-08-21T17:29:43.568Z,19.65
2017-08-21T17:32:11.184Z,19.77
2017-08-21T17:34:38.789Z,19.81
2017-08-21T17:37:06.569Z,19.85
2017-08-21T17:39:34.180Z,19.90
2017-08-21T17:42:02.725Z,20.00
2017-08-21T17:44:31.086Z,19.74
2017-08-21T17:46:58.723Z,19.80
2017-08-21T17:49:26.886Z,19.76
2017-08-21T17:51:54.427Z,19.65
2017-08-21T17:54:22.241Z,19.62
2017-08-21T17:56:50.840Z,19.57
2017-08-21T17:59:18.434Z,19.64
2017-08-21T18:01:46.028Z,19.76
2017-08-21T18:04:13.602Z,19.66
2017-08-21T18:06:41.235Z,19.63
2017-08-21T18:09:09.648Z,19.64
2017-08-21T18:11:37.162Z,19.66
2017-08-21T18:14:05.900Z,19.87
2017-08-21T18:16:33.539Z,20.12
2017-08-21T18:19:01.880Z,19.94
2017-08-21T18:21:29.456Z,19.75
2017-08-21T18:23:57.917Z,19.72
2017-08-21T18:26:25.445Z,19.79
2017-08-21T18:28:52.984Z,19.77
2017-08-21T18:31:21.469Z,19.69
2017-08-21T18:33:49.069Z,19.60
2017-08-21T18:36:16.901Z,19.49
2017-08-21T18:38:44.832Z,19.62
2017-08-21T18:41:12.473Z,19.71
2017-08-21T18:43:40.067Z,19.68
2017-08-21T18:46:07.683Z,19.64
2017-08-21T18:48:35.466Z,19.72
2017-08-21T18:51:03.347Z,19.52
2017-08-21T18:53:31.148Z,19.53
2017-08-21T18:55:59.727Z,19.63
2017-08-21T18:58:27.534Z,19.50
2017-08-21T19:00:56.275Z,19.50
2017-08-21T19:03:23.822Z,19.59
2017-08-21T19:05:52.853Z,19.47
2017-08-21T19:08:20.946Z,19.46
2017-08-21T19:10:48.602Z,19.63
2017-08-21T19:13:17.142Z,19.66
2017-08-21T19:15:44.723Z,19.72
2017-08-21T19:18:12.619Z,19.50
2017-08-21T19:20:40.222Z,19.69
2017-08-21T19:23:07.825Z,19.79
2017-08-21T19:25:36.390Z,19.73
2017-08-21T19:28:06.440Z,19.76
2017-08-21T19:30:35.337Z,19.63
2017-08-21T19:33:03.056Z,19.63
2017-08-21T19:35:30.593Z,19.56
2017-08-21T19:37:58.209Z,19.74
2017-08-21T19:40:25.806Z,19.81
2017-08-21T19:42:53.398Z,19.91
2017-08-21T19:45:21.006Z,19.82
2017-08-21T19:47:49.454Z,19.78
2017-08-21T19:50:17.942Z,19.75
2017-08-21T19:52:45.532Z,19.72
2017-08-21T19:55:13.116Z,19.63
2017-08-21T19:57:40.709Z,19.59
2017-08-21T20:00:10.319Z,19.52
2017-08-21T20:02:37.858Z,19.57
2017-08-21T20:05:05.624Z,19.52
2017-08-21T20:07:33.182Z,19.42
2017-08-21T20:10:00.764Z,19.54
2017-08-21T20:12:28.545Z,19.50
2017-08-21T20:14:56.201Z,19.52
2017-08-21T20:17:24.772Z,19.48
2017-08-21T20:19:52.361Z,19.52
2017-08-21T20:22:19.969Z,19.57
2017-08-21T20:24:47.521Z,19.54
2017-08-21T20:27:15.542Z,19.63
2017-08-21T20:29:43.117Z,19.65
2017-08-21T20:32:10.975Z,19.69
2017-08-21T20:34:38.524Z,19.62
2017-08-21T20:37:06.058Z,19.59
2017-08-21T20:39:33.682Z,19.54
2017-08-21T20:42:03.076Z,19.50
2017-08-21T20:44:30.672Z,19.50
2017-08-21T20:47:00.114Z,19.58
2017-08-21T20:49:27.662Z,19.47
2017-08-21T20:51:55.231Z,19.33
2017-08-21T20:54:22.842Z,19.40
2017-08-21T20:56:50.388Z,19.50
2017-08-21T20:59:17.986Z,19.38
2017-08-21T21:01:45.573Z,19.37
2017-08-21T21:04:13.170Z,19.46
2017-08-21T21:06:40.868Z,19.31
2017-08-21T21:09:08.448Z,19.40
2017-08-21T21:11:35.996Z,19.23
2017-08-21T21:14:03.537Z,19.33
2017-08-21T21:16:31.620Z,19.15
2017-08-21T21:18:59.444Z,19.38
2017-08-21T21:21:27.020Z,19.49
2017-08-21T21:23:54.606Z,19.24
2017-08-21T21:26:22.587Z,19.22
2017-08-21T21:28:50.247Z,19.37
2017-08-21T21:31:17.882Z,19.23
2017-08-21T21:33:45.508Z,19.29
2017-08-21T21:36:13.269Z,19.28
2017-08-21T21:38:40.846Z,19.25
2017-08-21T21:41:08.390Z,19.40
2017-08-21T21:43:36.792Z,19.30
2017-08-21T21:46:04.384Z,19.14
2017-08-21T21:48:31.902Z,19.18
2017-08-21T21:50:59.677Z,19.24
2017-08-21T21:53:27.243Z,19.24
2017-08-21T21:55:55.244Z,19.22
2017-08-21T21:58:22.791Z,19.02
2017-08-21T22:00:50.407Z,18.99
2017-08-21T22:03:17.958Z,19.06
2017-08-21T22:05:45.756Z,19.08
2017-08-21T22:08:13.312Z,19.17
2017-08-21T22:10:41.084Z,19.16
2017-08-21T22:13:08.846Z,19.11
2017-08-21T22:15:36.634Z,19.02
2017-08-21T22:18:04.193Z,19.17
2017-08-21T22:20:31.785Z,19.19
2017-08-21T22:22:59.349Z,19.12
2017-08-21T22:25:26.887Z,19.04
2017-08-21T22:28:32.353Z,19.27
2017-08-21T22:30:59.984Z,19.15
2017-08-21T22:33:28.321Z,19.06
2017-08-21T22:35:56.085Z,19.01
2017-08-21T22:38:23.675Z,18.98
2017-08-21T22:40:51.380Z,19.05
2017-08-21T22:43:18.952Z,19.14
2017-08-21T22:45:46.528Z,19.09
2017-08-21T22:48:14.084Z,18.93
2017-08-21T22:50:42.434Z,18.98
2017-08-21T22:53:10.062Z,18.97
2017-08-21T22:55:37.603Z,18.98
2017-08-21T22:58:05.169Z,19.04
2017-08-21T23:00:33.029Z,19.10
2017-08-21T23:03:00.587Z,19.02
2017-08-21T23:05:28.186Z,19.08
2017-08-21T23:07:56.450Z,19.12
2017-08-21T23:10:24.018Z,18.97
2017-08-21T23:12:51.792Z,18.94
2017-08-21T23:15:19.417Z,18.79
2017-08-21T23:17:46.996Z,18.83
2017-08-21T23:20:14.781Z,18.82
2017-08-21T23:22:42.374Z,18.82
2017-08-21T23:25:09.916Z,18.74
2017-08-21T23:27:37.449Z,18.80
2017-08-21T23:30:06.501Z,18.76
2017-08-21T23:32:34.043Z,18.78
2017-08-21T23:35:01.591Z,18.78
2017-08-21T23:37:29.172Z,18.77
2017-08-21T23:39:56.933Z,18.73
2017-08-21T23:42:24.457Z,18.61
2017-08-21T23:44:52.047Z,18.73
2017-08-21T23:47:19.799Z,18.84
2017-08-21T23:49:47.345Z,18.78
2017-08-21T23:52:14.943Z,18.77
2017-08-21T23:54:42.685Z,18.55
2017-08-21T23:57:10.441Z,18.63
2017-08-21T23:59:38.020Z,18.59
